Time;durP1;ratioP1;P1;durP2;ratioP2;P2;SDS_P1;SDS_P2;PMS_P1;PMS_P2;Temp;Humidity;BMP_temperature;BMP_pressure;BME280_temperature;BME280_humidity;BME280_pressure;Samples;Min_cycle;Max_cycle;Signal;HPM_P1;HPM_P2
2021/12/30 00:01:28;;;;;;;25.53;12.03;;;11.60;1.00;;;;;;5012015;28;20239;-62
2021/12/30 00:03:55;;;;;;;28.40;12.00;;;11.70;1.00;;;;;;5012552;28;20644;-62
2021/12/30 00:06:23;;;;;;;26.00;11.73;;;11.60;1.00;;;;;;5012318;28;20214;-62
2021/12/30 00:08:51;;;;;;;27.70;11.57;;;11.60;1.00;;;;;;5012154;28;20234;-62
2021/12/30 00:11:18;;;;;;;29.77;12.07;;;11.60;1.00;;;;;;5012104;28;20214;-61
2021/12/30 00:13:45;;;;;;;25.73;10.87;;;11.60;1.00;;;;;;5011845;28;20218;-61
2021/12/30 00:16:15;;;;;;;25.07;10.70;;;11.60;1.00;;;;;;5011695;28;20214;-62
2021/12/30 00:18:42;;;;;;;28.57;11.43;;;11.60;1.00;;;;;;5012250;28;20231;-62
2021/12/30 00:21:10;;;;;;;28.43;11.10;;;11.60;1.00;;;;;;5012093;28;20209;-61
2021/12/30 00:23:36;;;;;;;26.27;10.53;;;11.60;1.00;;;;;;5011473;28;20284;-62
2021/12/30 00:26:04;;;;;;;22.37;11.23;;;11.60;1.00;;;;;;5011676;28;20213;-61
2021/12/30 00:28:30;;;;;;;28.10;11.73;;;11.60;1.00;;;;;;5011821;28;20773;-61
2021/12/30 00:30:57;;;;;;;23.17;9.07;;;11.60;1.00;;;;;;5011779;28;20734;-62
2021/12/30 00:33:27;;;;;;;22.30;8.80;;;11.60;1.00;;;;;;5011815;28;20527;-62
2021/12/30 00:35:54;;;;;;;18.57;8.27;;;11.50;1.00;;;;;;5011795;28;20304;-62
2021/12/30 00:38:21;;;;;;;22.93;8.30;;;11.50;1.00;;;;;;5011620;28;20276;-62
2021/12/30 00:40:48;;;;;;;22.43;8.33;;;11.50;1.00;;;;;;5011387;28;20720;-62
2021/12/30 00:43:15;;;;;;;21.07;7.37;;;11.50;1.00;;;;;;5011732;28;20230;-62
2021/12/30 00:45:41;;;;;;;20.23;7.47;;;11.40;1.00;;;;;;5011900;28;20257;-62
2021/12/30 00:48:09;;;;;;;23.10;7.07;;;11.40;1.00;;;;;;5011386;28;20238;-62
2021/12/30 00:50:39;;;;;;;19.23;7.77;;;11.40;1.00;;;;;;5011714;28;20215;-62
2021/12/30 00:53:08;;;;;;;28.43;7.70;;;11.30;1.00;;;;;;5011308;28;20264;-62
2021/12/30 00:55:35;;;;;;;19.40;7.63;;;11.40;1.00;;;;;;5011560;28;20218;-61
2021/12/30 00:58:02;;;;;;;19.87;6.10;;;11.40;1.00;;;;;;5011358;28;20227;-62
2021/12/30 01:00:29;;;;;;;21.43;6.00;;;11.30;1.00;;;;;;5011526;28;20261;-62
2021/12/30 01:02:56;;;;;;;17.10;5.80;;;11.40;1.00;;;;;;5014119;28;20662;-62
2021/12/30 01:05:23;;;;;;;21.23;6.70;;;11.40;1.00;;;;;;5015454;28;20207;-62
2021/12/30 01:07:51;;;;;;;17.97;5.33;;;11.30;1.00;;;;;;5015115;28;20234;-62
2021/12/30 01:10:23;;;;;;;22.17;5.73;;;11.30;1.00;;;;;;5015357;28;20265;-62
2021/12/30 01:12:50;;;;;;;19.90;6.27;;;11.30;1.00;;;;;;5015935;28;20284;-61
2021/12/30 01:15:19;;;;;;;21.43;5.70;;;11.30;1.00;;;;;;5015431;28;20302;-61
2021/12/30 01:17:51;;;;;;;21.63;5.83;;;11.30;1.00;;;;;;5015330;28;20232;-61
2021/12/30 01:20:21;;;;;;;21.43;6.27;;;11.30;1.00;;;;;;5031317;28;20204;-62
2021/12/30 01:22:48;;;;;;;18.50;5.20;;;11.30;1.00;;;;;;5034791;28;20214;-62
2021/12/30 01:25:17;;;;;;;15.87;5.27;;;11.30;1.00;;;;;;5034868;28;20214;-61
2021/12/30 01:27:44;;;;;;;21.37;5.77;;;11.30;1.00;;;;;;5034792;28;20223;-61
2021/12/30 01:30:13;;;;;;;21.17;5.47;;;11.30;1.00;;;;;;5035136;28;20211;-61
2021/12/30 01:32:41;;;;;;;20.40;5.73;;;11.30;1.00;;;;;;5034538;28;20284;-62
2021/12/30 01:35:10;;;;;;;23.00;6.27;;;11.30;1.00;;;;;;5035935;28;20210;-61
2021/12/30 01:37:37;;;;;;;23.17;5.27;;;11.30;1.00;;;;;;5034597;28;20230;-61
2021/12/30 01:40:06;;;;;;;24.40;5.00;;;11.30;1.00;;;;;;5034551;28;20605;-62
2021/12/30 01:42:34;;;;;;;22.43;5.53;;;11.40;1.00;;;;;;5034353;28;20229;-61
2021/12/30 01:45:00;;;;;;;16.97;5.03;;;11.40;1.00;;;;;;5034419;28;20226;-62
2021/12/30 01:47:27;;;;;;;17.70;4.57;;;11.40;1.00;;;;;;5034140;28;20260;-61
2021/12/30 01:49:54;;;;;;;19.63;4.90;;;11.40;1.00;;;;;;5034355;28;20260;-61
2021/12/30 01:52:21;;;;;;;15.50;4.13;;;11.40;1.00;;;;;;5034791;28;20202;-61
2021/12/30 01:54:48;;;;;;;18.33;4.40;;;11.40;1.00;;;;;;5034517;28;20283;-61
2021/12/30 01:57:15;;;;;;;17.30;5.07;;;11.50;1.00;;;;;;5034662;28;20238;-61
2021/12/30 01:59:45;;;;;;;19.80;5.20;;;11.50;1.00;;;;;;5034021;28;20303;-61
2021/12/30 02:02:12;;;;;;;22.30;5.07;;;11.50;1.00;;;;;;5033829;28;20202;-62
2021/12/30 02:04:38;;;;;;;17.87;4.80;;;11.40;1.00;;;;;;5034123;28;20268;-61
2021/12/30 02:07:05;;;;;;;22.07;5.03;;;11.40;1.00;;;;;;5033776;28;20214;-62
2021/12/30 02:09:32;;;;;;;17.23;5.03;;;11.40;1.00;;;;;;5034059;28;20258;-62
2021/12/30 02:12:00;;;;;;;21.00;5.80;;;11.50;1.00;;;;;;5033805;28;20260;-61
2021/12/30 02:14:27;;;;;;;21.30;4.67;;;11.50;1.00;;;;;;5033196;28;20629;-61
2021/12/30 02:16:55;;;;;;;16.97;4.40;;;11.50;1.00;;;;;;5033878;28;20262;-61
2021/12/30 02:19:22;;;;;;;16.20;5.30;;;11.50;1.00;;;;;;5034703;28;20669;-61
2021/12/30 02:21:50;;;;;;;17.93;5.00;;;11.60;1.00;;;;;;5034148;28;20237;-61
2021/12/30 02:24:17;;;;;;;19.40;5.33;;;11.50;1.00;;;;;;5033358;28;20226;-61
2021/12/30 02:26:43;;;;;;;21.67;5.03;;;11.50;1.00;;;;;;5033296;28;20206;-61
2021/12/30 02:29:10;;;;;;;14.20;4.10;;;11.50;1.00;;;;;;5033182;28;20653;-61
2021/12/30 02:31:37;;;;;;;19.20;4.13;;;11.50;1.00;;;;;;5033861;28;20249;-60
2021/12/30 02:34:04;;;;;;;20.57;4.40;;;11.50;1.00;;;;;;5033725;28;20212;-61
2021/12/30 02:36:33;;;;;;;17.17;4.77;;;11.50;1.00;;;;;;5033536;28;20258;-61
2021/12/30 02:39:03;;;;;;;18.03;4.80;;;11.50;1.00;;;;;;5033200;28;20277;-61
2021/12/30 02:41:33;;;;;;;17.83;4.50;;;11.50;1.00;;;;;;5033343;28;20305;-61
2021/12/30 02:44:00;;;;;;;18.10;4.40;;;11.50;1.00;;;;;;5033350;28;20226;-61
2021/12/30 02:46:28;;;;;;;14.27;4.30;;;11.60;1.00;;;;;;5033459;28;20264;-62
2021/12/30 02:48:55;;;;;;;19.77;4.63;;;11.60;1.00;;;;;;5033792;28;20258;-62
2021/12/30 02:51:22;;;;;;;25.10;4.67;;;11.60;1.00;;;;;;5033277;28;20214;-61
2021/12/30 02:53:49;;;;;;;19.07;4.23;;;11.60;1.00;;;;;;5033510;28;20734;-64
2021/12/30 02:56:18;;;;;;;21.10;4.30;;;11.60;1.00;;;;;;5033039;28;20213;-62
2021/12/30 02:58:45;;;;;;;18.83;3.70;;;11.60;1.00;;;;;;5033790;28;20320;-61
2021/12/30 03:01:14;;;;;;;20.33;4.60;;;11.70;1.00;;;;;;5033578;28;20287;-61
2021/12/30 03:03:41;;;;;;;17.50;3.83;;;11.70;1.00;;;;;;5033089;28;20229;-62
2021/12/30 03:06:10;;;;;;;16.30;3.87;;;11.70;1.00;;;;;;5032914;28;20259;-62
2021/12/30 03:08:37;;;;;;;17.40;3.93;;;11.70;1.00;;;;;;5032676;28;20226;-61
2021/12/30 03:11:05;;;;;;;22.53;3.90;;;11.60;1.00;;;;;;5032954;28;20270;-61
2021/12/30 03:13:35;;;;;;;17.13;4.60;;;11.70;5.40;;;;;;5033031;28;20264;-62
2021/12/30 03:16:04;;;;;;;16.93;3.70;;;11.70;8.10;;;;;;5033193;28;20208;-62
2021/12/30 03:18:31;;;;;;;21.70;4.63;;;11.70;10.10;;;;;;5032918;28;20230;-62
2021/12/30 03:20:58;;;;;;;21.67;4.37;;;11.70;12.70;;;;;;5032679;28;20214;-61
2021/12/30 03:23:25;;;;;;;19.53;5.00;;;11.70;19.60;;;;;;5032592;28;20637;-62
2021/12/30 03:25:52;;;;;;;18.97;4.63;;;11.70;24.30;;;;;;5031250;28;20675;-61
2021/12/30 03:28:19;;;;;;;22.37;5.20;;;11.70;29.00;;;;;;5032574;28;20663;-62
2021/12/30 03:30:48;;;;;;;17.23;5.27;;;11.70;36.70;;;;;;5032859;28;20610;-61
2021/12/30 03:33:15;;;;;;;15.63;5.50;;;11.70;46.20;;;;;;5032604;28;20255;-60
2021/12/30 03:35:42;;;;;;;20.03;5.23;;;11.70;51.80;;;;;;5032360;28;20228;-59
2021/12/30 03:38:09;;;;;;;15.37;5.00;;;11.70;57.60;;;;;;5032074;28;20719;-60
2021/12/30 03:40:36;;;;;;;19.37;5.03;;;11.70;64.00;;;;;;5032739;28;20206;-60
2021/12/30 03:43:03;;;;;;;22.33;5.17;;;11.70;67.40;;;;;;5032300;28;20266;-59
2021/12/30 03:45:30;;;;;;;19.30;5.73;;;11.70;69.60;;;;;;5032381;28;20229;-59
2021/12/30 03:47:58;;;;;;;14.83;5.00;;;11.70;74.20;;;;;;5031704;28;20250;-60
2021/12/30 03:50:29;;;;;;;20.83;6.40;;;11.70;80.50;;;;;;5032202;28;20212;-62
2021/12/30 03:52:58;;;;;;;14.90;5.57;;;11.80;82.40;;;;;;5032203;28;20209;-62
2021/12/30 03:55:26;;;;;;;19.87;5.50;;;11.80;85.00;;;;;;5032284;28;20210;-62
2021/12/30 03:57:55;;;;;;;16.97;5.47;;;11.80;88.40;;;;;;5032034;28;20229;-61
2021/12/30 04:00:24;;;;;;;23.20;5.57;;;11.80;90.40;;;;;;5032201;28;20213;-63
2021/12/30 04:02:51;;;;;;;14.07;5.20;;;11.90;91.90;;;;;;5031967;28;20587;-61
2021/12/30 04:05:19;;;;;;;13.67;4.90;;;11.90;92.80;;;;;;5031878;28;20724;-61
2021/12/30 04:07:46;;;;;;;10.50;4.70;;;11.90;93.90;;;;;;5032111;28;20236;-62
2021/12/30 04:10:14;;;;;;;13.57;4.93;;;12.00;94.00;;;;;;5031768;28;20559;-62
2021/12/30 04:12:42;;;;;;;14.03;4.87;;;12.00;93.30;;;;;;5031873;28;20206;-62
2021/12/30 04:15:09;;;;;;;15.83;4.60;;;12.00;94.30;;;;;;5031704;28;20217;-62
2021/12/30 04:17:36;;;;;;;12.57;5.57;;;12.00;94.30;;;;;;5031500;28;20211;-59
2021/12/30 04:20:04;;;;;;;14.87;5.73;;;12.00;94.60;;;;;;5032598;28;20209;-61
2021/12/30 04:22:32;;;;;;;16.60;6.07;;;12.10;96.20;;;;;;5031718;28;20209;-61
2021/12/30 04:24:59;;;;;;;16.30;7.20;;;12.00;96.70;;;;;;5031770;28;20241;-61
2021/12/30 04:27:25;;;;;;;14.47;6.57;;;12.00;98.10;;;;;;5031347;28;20746;-61
2021/12/30 04:29:52;;;;;;;18.23;6.77;;;12.00;99.90;;;;;;5031779;28;20214;-61
2021/12/30 04:32:19;;;;;;;15.47;6.97;;;12.00;99.90;;;;;;5031254;28;20206;-62
2021/12/30 04:34:45;;;;;;;16.40;7.47;;;12.00;99.90;;;;;;5031945;28;20623;-62
2021/12/30 04:37:13;;;;;;;14.17;7.60;;;12.00;99.90;;;;;;5031133;28;20279;-62
2021/12/30 04:39:41;;;;;;;14.63;7.03;;;12.00;99.90;;;;;;5031567;28;20443;-61
2021/12/30 04:42:08;;;;;;;18.40;7.73;;;12.00;99.90;;;;;;5031668;28;20210;-62
2021/12/30 04:44:34;;;;;;;14.47;6.97;;;12.00;99.90;;;;;;5031589;28;20233;-62
2021/12/30 04:47:01;;;;;;;14.90;7.57;;;12.10;99.90;;;;;;5031641;28;20263;-62
2021/12/30 04:49:28;;;;;;;13.43;6.27;;;12.10;99.90;;;;;;5031187;28;20232;-62
2021/12/30 04:51:54;;;;;;;12.03;5.90;;;12.10;99.90;;;;;;5031721;28;20272;-62
2021/12/30 04:54:21;;;;;;;9.57;5.00;;;12.10;99.90;;;;;;5031734;28;20633;-62
2021/12/30 04:56:51;;;;;;;9.83;4.93;;;12.10;99.90;;;;;;5031246;28;20239;-62
2021/12/30 04:59:17;;;;;;;6.77;3.63;;;12.10;99.90;;;;;;5031375;28;20238;-61
2021/12/30 05:01:44;;;;;;;6.83;3.00;;;12.10;99.90;;;;;;5031666;28;20214;-62
2021/12/30 05:04:11;;;;;;;5.07;2.23;;;12.10;99.90;;;;;;5031832;28;20603;-62
2021/12/30 05:06:38;;;;;;;4.67;2.07;;;12.10;99.90;;;;;;5031489;28;20217;-61
2021/12/30 05:09:08;;;;;;;2.47;1.63;;;12.10;99.90;;;;;;5031232;28;20746;-62
2021/12/30 05:11:35;;;;;;;4.23;1.60;;;12.10;99.90;;;;;;5031134;28;20628;-62
2021/12/30 05:14:03;;;;;;;2.67;1.43;;;12.20;99.90;;;;;;5031364;28;20264;-63
2021/12/30 05:16:30;;;;;;;2.87;0.97;;;12.20;99.90;;;;;;5031134;28;20217;-61
2021/12/30 05:18:57;;;;;;;2.53;1.10;;;12.20;99.90;;;;;;5025382;28;20230;-61
2021/12/30 05:21:24;;;;;;;3.03;0.97;;;12.30;99.90;;;;;;5011521;28;20211;-61
2021/12/30 05:23:51;;;;;;;1.00;0.80;;;12.30;99.90;;;;;;5011094;28;20701;-62
2021/12/30 05:26:18;;;;;;;1.60;0.87;;;12.30;99.90;;;;;;5011275;28;20264;-61
2021/12/30 05:28:45;;;;;;;1.93;0.80;;;12.30;99.90;;;;;;5011336;28;20227;-61
2021/12/30 05:31:13;;;;;;;2.10;0.90;;;12.30;99.90;;;;;;5011543;28;20859;-61
2021/12/30 05:33:40;;;;;;;1.73;0.70;;;12.40;99.90;;;;;;5011788;28;20211;-61
2021/12/30 05:36:07;;;;;;;0.97;0.73;;;12.30;99.90;;;;;;5011058;28;20206;-61
2021/12/30 05:38:33;;;;;;;1.87;1.00;;;12.30;99.90;;;;;;5011078;28;20238;-61
2021/12/30 05:41:00;;;;;;;1.57;1.27;;;12.40;99.90;;;;;;5010929;28;20207;-61
2021/12/30 05:43:27;;;;;;;2.27;1.13;;;12.40;99.90;;;;;;5011563;28;20633;-61
2021/12/30 05:45:54;;;;;;;2.67;1.47;;;12.40;99.90;;;;;;5011103;28;20214;-61
2021/12/30 05:48:22;;;;;;;1.70;1.30;;;12.40;99.90;;;;;;5011434;28;20227;-61
2021/12/30 05:50:49;;;;;;;1.13;1.03;;;12.40;99.90;;;;;;5014859;28;20269;-60
2021/12/30 05:53:15;;;;;;;1.27;0.90;;;12.30;99.90;;;;;;5014421;28;20257;-61
2021/12/30 05:55:42;;;;;;;1.13;1.03;;;12.30;99.90;;;;;;5015109;28;20210;-61
2021/12/30 05:58:09;;;;;;;1.10;0.87;;;12.30;99.90;;;;;;5014552;28;20655;-61
2021/12/30 06:00:36;;;;;;;1.83;1.00;;;12.30;99.90;;;;;;5014910;28;20233;-61
2021/12/30 06:03:03;;;;;;;1.63;1.10;;;12.30;99.90;;;;;;5014946;28;20210;-61
2021/12/30 06:05:32;;;;;;;2.87;1.80;;;12.30;99.90;;;;;;5014859;28;20724;-61
2021/12/30 06:07:58;;;;;;;2.53;1.90;;;12.30;99.90;;;;;;5014265;28;20518;-62
2021/12/30 06:10:25;;;;;;;2.87;2.13;;;12.40;99.90;;;;;;5014639;28;20269;-62
2021/12/30 06:12:51;;;;;;;3.63;2.53;;;12.40;99.90;;;;;;5014599;28;20257;-62
2021/12/30 06:15:18;;;;;;;6.10;3.20;;;12.50;99.90;;;;;;5014319;28;20207;-62
2021/12/30 06:17:45;;;;;;;6.10;3.43;;;12.50;99.90;;;;;;5014960;28;20235;-61
2021/12/30 06:20:14;;;;;;;6.63;3.90;;;12.50;99.90;;;;;;5014625;28;20268;-58
2021/12/30 06:22:43;;;;;;;5.70;3.90;;;12.60;99.90;;;;;;5013947;28;20207;-61
2021/12/30 06:25:11;;;;;;;6.20;3.87;;;12.60;99.90;;;;;;5013820;28;20227;-61
2021/12/30 06:27:38;;;;;;;7.20;4.00;;;12.70;99.90;;;;;;5014015;28;20209;-61
2021/12/30 06:30:07;;;;;;;5.33;3.43;;;12.70;99.90;;;;;;5014486;28;20257;-62
2021/12/30 06:32:33;;;;;;;7.30;3.13;;;12.70;99.90;;;;;;5013951;28;20254;-61
2021/12/30 06:35:00;;;;;;;5.80;3.40;;;12.70;99.90;;;;;;5013774;28;20669;-59
2021/12/30 06:37:27;;;;;;;5.23;2.70;;;12.80;99.90;;;;;;5013214;28;20650;-60
2021/12/30 06:39:55;;;;;;;5.03;3.10;;;12.80;99.90;;;;;;5014126;28;20261;-57
2021/12/30 06:42:21;;;;;;;6.90;3.47;;;12.80;99.90;;;;;;5013702;28;20211;-59
2021/12/30 06:44:48;;;;;;;5.57;3.87;;;12.80;99.90;;;;;;5013674;28;20277;-59
2021/12/30 06:47:15;;;;;;;6.20;3.80;;;12.80;99.90;;;;;;5013506;28;20211;-59
2021/12/30 06:49:41;;;;;;;6.47;3.70;;;12.80;99.90;;;;;;5013788;28;20321;-60
2021/12/30 06:52:11;;;;;;;6.83;4.00;;;12.90;99.90;;;;;;5013568;28;20378;-59
2021/12/30 06:54:38;;;;;;;7.70;4.07;;;12.90;99.90;;;;;;5013435;28;20211;-59
2021/12/30 06:57:06;;;;;;;6.80;4.63;;;12.90;99.90;;;;;;5013371;28;20215;-61
2021/12/30 06:59:35;;;;;;;5.40;3.90;;;13.00;99.90;;;;;;5012882;28;20231;-61
2021/12/30 07:02:02;;;;;;;5.60;4.23;;;13.00;99.90;;;;;;5013481;28;20211;-60
2021/12/30 07:04:28;;;;;;;7.13;4.43;;;13.00;99.90;;;;;;5013594;28;20223;-61
2021/12/30 07:06:55;;;;;;;5.97;3.60;;;13.00;99.90;;;;;;5013148;28;20212;-61
2021/12/30 07:09:22;;;;;;;6.00;4.00;;;13.10;99.90;;;;;;5013519;28;20234;-59
2021/12/30 07:11:49;;;;;;;5.93;3.80;;;13.10;99.90;;;;;;5013222;28;20608;-62
2021/12/30 07:14:21;;;;;;;11.23;3.93;;;13.10;99.90;;;;;;5013105;28;20696;-62
2021/12/30 07:16:48;;;;;;;5.60;3.80;;;13.10;99.90;;;;;;5012929;28;20210;-61
2021/12/30 07:19:15;;;;;;;6.10;3.23;;;13.10;99.90;;;;;;5013597;28;20227;-61
2021/12/30 07:21:42;;;;;;;5.33;3.27;;;13.10;99.90;;;;;;5013116;28;20618;-60
2021/12/30 07:24:09;;;;;;;6.40;3.70;;;13.10;99.90;;;;;;5013039;28;20292;-62
2021/12/30 07:26:36;;;;;;;4.47;3.00;;;13.10;99.90;;;;;;5013305;28;20210;-61
2021/12/30 07:29:04;;;;;;;4.73;3.10;;;13.10;99.90;;;;;;5012381;28;20281;-61
2021/12/30 07:31:32;;;;;;;4.43;2.83;;;13.10;99.90;;;;;;5012630;28;20879;-61
2021/12/30 07:33:59;;;;;;;4.00;3.03;;;13.20;99.90;;;;;;5012801;28;20272;-60
2021/12/30 07:36:26;;;;;;;4.23;3.03;;;13.20;99.90;;;;;;5012451;28;20207;-61
2021/12/30 07:38:52;;;;;;;4.23;2.90;;;13.20;99.90;;;;;;5012263;28;20231;-60
2021/12/30 07:41:19;;;;;;;5.33;2.60;;;13.20;99.90;;;;;;5012375;28;20218;-60
2021/12/30 07:43:46;;;;;;;2.43;1.83;;;13.20;99.90;;;;;;5012248;28;20210;-61
2021/12/30 07:46:13;;;;;;;2.83;2.10;;;13.20;99.90;;;;;;5012304;28;20259;-61
2021/12/30 07:48:41;;;;;;;2.60;2.10;;;13.20;99.90;;;;;;5012823;28;20234;-61
2021/12/30 07:51:08;;;;;;;4.63;2.20;;;13.20;99.90;;;;;;5012498;28;20213;-62
2021/12/30 07:53:35;;;;;;;3.17;2.50;;;13.30;99.90;;;;;;5012543;28;20649;-62
2021/12/30 07:56:02;;;;;;;1.83;1.57;;;13.30;99.90;;;;;;5012168;28;20209;-61
2021/12/30 07:58:29;;;;;;;3.70;2.00;;;13.30;99.90;;;;;;5012442;28;20269;-62
2021/12/30 08:00:56;;;;;;;2.83;1.67;;;13.30;99.90;;;;;;5012731;28;20264;-62
2021/12/30 08:03:24;;;;;;;2.73;1.87;;;13.30;99.90;;;;;;5012362;28;20229;-61
2021/12/30 08:05:52;;;;;;;3.20;2.10;;;13.30;99.90;;;;;;5012231;28;20596;-61
2021/12/30 08:08:19;;;;;;;2.80;2.20;;;13.30;99.90;;;;;;5012170;28;20230;-64
2021/12/30 08:10:46;;;;;;;3.40;2.47;;;13.30;99.90;;;;;;5010071;28;20697;-61
2021/12/30 08:13:12;;;;;;;2.50;2.00;;;13.20;99.90;;;;;;5008090;28;20218;-61
2021/12/30 08:15:39;;;;;;;3.20;2.27;;;13.20;99.90;;;;;;5011773;28;20207;-61
2021/12/30 08:18:06;;;;;;;3.50;2.40;;;13.20;99.90;;;;;;5011832;28;20647;-62
2021/12/30 08:20:32;;;;;;;3.30;2.03;;;13.20;99.90;;;;;;5011809;28;20203;-61
2021/12/30 08:23:00;;;;;;;3.07;2.30;;;13.20;99.90;;;;;;5011677;28;20218;-62
2021/12/30 08:25:27;;;;;;;3.53;2.57;;;13.20;99.90;;;;;;5011139;28;20218;-62
2021/12/30 08:27:55;;;;;;;4.83;2.60;;;13.20;99.90;;;;;;5011779;28;20288;-60
2021/12/30 08:30:22;;;;;;;3.67;2.73;;;13.20;99.90;;;;;;5011799;28;20205;-61
2021/12/30 08:32:49;;;;;;;5.53;2.90;;;13.20;99.90;;;;;;5011607;28;20211;-62
2021/12/30 08:35:20;;;;;;;3.50;2.50;;;13.20;99.90;;;;;;5011791;28;20202;-62
2021/12/30 08:37:48;;;;;;;3.70;2.73;;;13.20;99.90;;;;;;5010960;28;20235;-61
2021/12/30 08:40:17;;;;;;;5.43;3.00;;;13.20;99.90;;;;;;5011261;28;20206;-61
2021/12/30 08:42:44;;;;;;;4.10;3.20;;;13.20;99.90;;;;;;5011131;28;20629;-61
2021/12/30 08:45:12;;;;;;;3.17;2.33;;;13.20;99.90;;;;;;5011278;28;20231;-61
2021/12/30 08:47:39;;;;;;;4.43;2.73;;;13.20;99.90;;;;;;5011020;28;20222;-62
2021/12/30 08:50:09;;;;;;;3.80;2.97;;;13.20;99.90;;;;;;5011225;28;20657;-59
2021/12/30 08:52:36;;;;;;;4.37;3.27;;;13.20;99.90;;;;;;5011165;28;20203;-62
2021/12/30 08:55:04;;;;;;;5.60;3.30;;;13.20;99.90;;;;;;5011167;28;20576;-62
2021/12/30 08:57:33;;;;;;;5.07;2.87;;;13.20;99.90;;;;;;5011178;28;20203;-60
2021/12/30 09:00:00;;;;;;;3.70;2.47;;;13.20;99.90;;;;;;5011048;28;20210;-62
2021/12/30 09:02:28;;;;;;;4.27;3.10;;;13.20;99.90;;;;;;5011084;28;20211;-62
2021/12/30 09:04:55;;;;;;;3.80;2.87;;;13.20;99.90;;;;;;5010780;28;20231;-61
2021/12/30 09:07:22;;;;;;;3.03;2.30;;;13.20;99.90;;;;;;5010896;28;20221;-62
2021/12/30 09:09:49;;;;;;;3.73;2.90;;;13.20;99.90;;;;;;5011432;28;20253;-62
2021/12/30 09:12:17;;;;;;;3.53;3.03;;;13.20;99.90;;;;;;5010882;28;20634;-62
2021/12/30 09:14:45;;;;;;;4.33;3.00;;;13.20;99.90;;;;;;5011313;28;20214;-62
2021/12/30 09:17:12;;;;;;;4.20;3.00;;;13.30;99.90;;;;;;5010748;28;20269;-62
2021/12/30 09:19:39;;;;;;;5.63;2.50;;;13.20;99.90;;;;;;5021591;28;20312;-63
2021/12/30 09:22:06;;;;;;;4.17;2.67;;;13.20;99.90;;;;;;5030897;28;20214;-63
2021/12/30 09:24:32;;;;;;;3.20;2.50;;;13.20;99.90;;;;;;5032967;28;20210;-62
2021/12/30 09:27:00;;;;;;;3.50;2.80;;;13.20;99.90;;;;;;5034599;28;20696;-62
2021/12/30 09:29:27;;;;;;;4.83;3.47;;;13.20;99.90;;;;;;5034292;28;20226;-62
2021/12/30 09:31:55;;;;;;;4.13;2.77;;;13.30;99.90;;;;;;5034660;28;20206;-63
2021/12/30 09:34:21;;;;;;;4.00;2.80;;;13.20;99.90;;;;;;5034728;28;20206;-63
2021/12/30 09:36:49;;;;;;;4.70;2.90;;;13.20;99.90;;;;;;5034487;28;20221;-61
2021/12/30 09:39:17;;;;;;;5.63;2.90;;;13.30;99.90;;;;;;5034488;28;20747;-63
2021/12/30 09:41:47;;;;;;;4.03;3.37;;;13.30;99.90;;;;;;5033885;28;20202;-62
2021/12/30 09:44:16;;;;;;;4.90;3.17;;;13.30;99.90;;;;;;5034837;28;20280;-61
2021/12/30 09:46:44;;;;;;;4.57;3.40;;;13.40;99.90;;;;;;5034369;28;20234;-62
2021/12/30 09:49:14;;;;;;;4.20;3.37;;;13.40;99.90;;;;;;5035411;28;20238;-60
2021/12/30 09:51:42;;;;;;;5.67;3.40;;;13.50;99.90;;;;;;5034727;28;20202;-63
2021/12/30 09:54:09;;;;;;;4.77;3.37;;;13.50;99.90;;;;;;5034442;28;20234;-60
2021/12/30 09:56:35;;;;;;;5.63;3.10;;;13.50;99.90;;;;;;5033838;28;20579;-60
2021/12/30 09:59:02;;;;;;;3.63;2.70;;;13.60;99.90;;;;;;5033876;28;20879;-60
2021/12/30 10:01:29;;;;;;;3.00;2.60;;;13.60;99.90;;;;;;5034369;28;20218;-58
2021/12/30 10:03:57;;;;;;;3.50;2.60;;;13.70;99.90;;;;;;5033976;28;20574;-59
2021/12/30 10:06:25;;;;;;;3.10;2.50;;;13.60;99.90;;;;;;5033962;28;20356;-57
2021/12/30 10:08:57;;;;;;;3.50;2.03;;;13.70;99.90;;;;;;5033614;28;20276;-59
2021/12/30 10:11:24;;;;;;;3.50;2.23;;;13.70;99.90;;;;;;5033204;28;20610;-56
2021/12/30 10:13:56;;;;;;;2.60;1.90;;;13.80;99.90;;;;;;5033367;28;20206;-58
2021/12/30 10:16:24;;;;;;;2.57;1.63;;;13.80;99.90;;;;;;5033694;28;20231;-57
2021/12/30 10:18:53;;;;;;;3.97;1.60;;;13.80;99.90;;;;;;5034085;28;20233;-59
2021/12/30 10:21:22;;;;;;;2.10;1.53;;;13.80;99.90;;;;;;5033927;28;20206;-58
2021/12/30 10:23:52;;;;;;;2.37;1.90;;;13.80;99.90;;;;;;5033694;28;20226;-59
2021/12/30 10:26:19;;;;;;;1.60;1.43;;;13.80;99.90;;;;;;5033206;28;20226;-60
2021/12/30 10:28:50;;;;;;;1.40;1.20;;;13.80;97.70;;;;;;5033320;28;20230;-61
2021/12/30 10:31:20;;;;;;;1.80;1.50;;;13.80;94.50;;;;;;5033329;28;20213;-63
2021/12/30 10:33:53;;;;;;;1.43;1.33;;;13.80;91.50;;;;;;5032580;28;20210;-59
2021/12/30 10:36:23;;;;;;;3.20;1.40;;;13.90;87.90;;;;;;5032863;28;20210;-59
2021/12/30 10:38:51;;;;;;;2.03;1.30;;;13.80;88.60;;;;;;5032833;28;20296;-57
2021/12/30 10:41:23;;;;;;;4.30;1.20;;;13.90;79.60;;;;;;5033500;28;20352;-60
2021/12/30 10:43:54;;;;;;;2.50;1.50;;;13.80;73.10;;;;;;5032912;28;20688;-59
2021/12/30 10:46:22;;;;;;;2.57;1.40;;;13.90;74.00;;;;;;5033087;28;20232;-59
2021/12/30 10:48:59;;;;;;;1.37;1.10;;;13.90;72.70;;;;;;5033114;28;20608;-59
2021/12/30 10:51:32;;;;;;;1.83;1.30;;;14.00;65.10;;;;;;5032498;28;20217;-60
2021/12/30 10:54:09;;;;;;;1.73;0.83;;;14.00;63.80;;;;;;5033320;28;20218;-60
2021/12/30 10:56:40;;;;;;;2.70;1.20;;;14.00;56.50;;;;;;5033106;28;20202;-60
2021/12/30 10:59:17;;;;;;;1.67;1.00;;;14.10;50.00;;;;;;5032916;28;20368;-67
2021/12/30 11:01:45;;;;;;;2.20;1.20;;;14.10;53.10;;;;;;5032551;28;20226;-67
2021/12/30 11:04:15;;;;;;;1.83;1.20;;;14.10;46.10;;;;;;5032947;28;20214;-70
2021/12/30 11:06:43;;;;;;;2.13;1.30;;;14.20;40.80;;;;;;5032151;28;20342;-69
2021/12/30 11:09:14;;;;;;;1.27;1.10;;;14.20;27.00;;;;;;5032621;28;20230;-70
2021/12/30 11:11:43;;;;;;;1.37;1.00;;;14.20;24.30;;;;;;5032315;28;20202;-70
2021/12/30 11:14:12;;;;;;;2.17;1.30;;;14.20;21.70;;;;;;5032759;28;20213;-69
2021/12/30 11:17:12;;;;;;;1.70;1.03;;;14.10;19.20;;;;;;5032565;28;20217;-65
2021/12/30 11:19:41;;;;;;;1.63;1.20;;;14.00;22.80;;;;;;5032725;28;20317;-70
2021/12/30 11:22:14;;;;;;;1.27;0.90;;;14.00;17.40;;;;;;5031855;28;20206;-69
2021/12/30 11:24:43;;;;;;;2.13;1.20;;;14.00;13.90;;;;;;5032590;28;20268;-69
2021/12/30 11:27:11;;;;;;;1.70;1.23;;;14.00;5.00;;;;;;5032335;28;20230;-69
2021/12/30 11:29:43;;;;;;;4.87;1.60;;;14.00;6.70;;;;;;5032237;28;20245;-71
2021/12/30 11:32:11;;;;;;;2.30;1.50;;;14.00;6.50;;;;;;5032363;28;20834;-71
2021/12/30 11:34:38;;;;;;;1.97;1.30;;;14.10;3.30;;;;;;5033010;28;20571;-68
2021/12/30 11:37:05;;;;;;;3.30;1.50;;;14.20;1.00;;;;;;5032002;28;20731;-69
2021/12/30 11:39:33;;;;;;;2.87;1.50;;;14.20;1.00;;;;;;5031640;28;20242;-68
2021/12/30 11:42:07;;;;;;;2.00;1.20;;;14.20;1.00;;;;;;5032291;28;20212;-69
2021/12/30 11:44:42;;;;;;;2.57;1.40;;;14.20;1.00;;;;;;5032053;28;20664;-69
2021/12/30 11:47:30;;;;;;;3.17;1.50;;;14.20;1.00;;;;;;5031198;28;20240;-69
2021/12/30 11:50:02;;;;;;;4.60;1.60;;;14.20;1.00;;;;;;5031755;28;20233;-70
2021/12/30 11:53:00;;;;;;;3.67;1.70;;;14.10;1.00;;;;;;5031669;28;20213;-69
2021/12/30 11:58:53;;;;;;;4.27;2.10;;;14.20;1.00;;;;;;5031798;28;20216;-70
2021/12/30 12:01:35;;;;;;;3.00;1.90;;;14.30;1.00;;;;;;5031523;28;20557;-76
2021/12/30 12:04:16;;;;;;;9.30;4.80;;;14.30;1.00;;;;;;5031340;28;20229;-71
2021/12/30 12:06:59;;;;;;;6.77;2.27;;;14.30;1.00;;;;;;5031571;28;20229;-71
2021/12/30 12:09:40;;;;;;;6.63;2.63;;;14.20;1.00;;;;;;5031684;28;20262;-70
2021/12/30 12:12:10;;;;;;;6.93;3.60;;;14.10;1.00;;;;;;5031318;28;20668;-71
2021/12/30 12:14:39;;;;;;;4.33;2.63;;;14.10;1.00;;;;;;5031291;28;20380;-71
2021/12/30 12:17:08;;;;;;;5.97;1.90;;;14.10;1.00;;;;;;5031529;28;20665;-68
2021/12/30 12:19:41;;;;;;;5.50;2.13;;;14.00;1.00;;;;;;5031694;28;20566;-68
2021/12/30 12:22:26;;;;;;;2.90;1.77;;;14.00;1.00;;;;;;5031523;28;20214;-67
2021/12/30 12:25:15;;;;;;;4.17;2.13;;;14.00;1.00;;;;;;5031904;28;20214;-72
2021/12/30 12:27:45;;;;;;;4.73;2.40;;;14.00;1.00;;;;;;5031813;28;20325;-69
2021/12/30 12:30:24;;;;;;;5.13;2.50;;;14.10;1.00;;;;;;5031365;28;20217;-69
2021/12/30 12:32:52;;;;;;;2.70;1.93;;;14.00;1.00;;;;;;5031394;28;20565;-67
2021/12/30 12:35:30;;;;;;;4.47;2.40;;;14.10;1.00;;;;;;5031670;28;20206;-68
2021/12/30 12:38:06;;;;;;;3.23;2.17;;;14.10;1.00;;;;;;5030873;28;20234;-68
2021/12/30 12:40:36;;;;;;;4.00;1.87;;;14.10;1.00;;;;;;5031588;28;20228;-69
2021/12/30 12:43:22;;;;;;;4.43;1.93;;;14.10;1.00;;;;;;5030983;28;20596;-69
2021/12/30 12:45:59;;;;;;;3.60;1.90;;;14.10;1.00;;;;;;5031166;28;20474;-69
2021/12/30 12:48:33;;;;;;;4.83;2.20;;;14.10;1.00;;;;;;5031634;28;20588;-69
2021/12/30 12:51:18;;;;;;;4.83;2.03;;;14.10;1.00;;;;;;5031675;28;20675;-69
2021/12/30 12:53:49;;;;;;;5.43;2.07;;;14.10;1.00;;;;;;5015803;28;20213;-71
2021/12/30 12:56:21;;;;;;;5.37;2.20;;;14.20;1.00;;;;;;5030672;28;20202;-70